createdAt,value
2019-03-31T00:01:07.630Z,90.12
2019-03-31T00:01:55.840Z,90.33
2019-03-31T00:02:54.875Z,90.22
2019-03-31T00:03:56.903Z,90.43
2019-03-31T00:04:53.884Z,90.89
2019-03-31T00:05:53.904Z,91.40
2019-03-31T00:06:54.828Z,91.61
2019-03-31T00:07:54.846Z,91.92
2019-03-31T00:08:56.891Z,92.02
2019-03-31T00:10:01.388Z,90.58
2019-03-31T00:11:00.719Z,90.78
2019-03-31T00:11:54.339Z,91.09
2019-03-31T00:12:54.330Z,91.86
2019-03-31T00:13:54.338Z,91.92
2019-03-31T00:14:53.791Z,92.23
2019-03-31T00:15:53.767Z,92.13
2019-03-31T00:16:53.762Z,91.82
2019-03-31T00:17:58.854Z,92.17
2019-03-31T00:19:15.328Z,93.37
2019-03-31T00:19:53.790Z,92.44
2019-03-31T00:20:53.700Z,91.96
2019-03-31T00:21:54.358Z,92.07
2019-03-31T00:22:56.334Z,92.44
2019-03-31T00:23:57.197Z,92.54
2019-03-31T00:24:53.793Z,92.58
2019-03-31T00:25:53.639Z,92.13
2019-03-31T00:26:53.639Z,92.48
2019-03-31T00:28:08.371Z,92.07
2019-03-31T00:28:53.641Z,92.17
2019-03-31T00:29:56.881Z,92.42
2019-03-31T00:31:00.324Z,92.52
2019-03-31T00:31:53.572Z,92.72
2019-03-31T00:32:53.569Z,93.14
2019-03-31T00:33:53.551Z,93.66
2019-03-31T00:34:53.587Z,93.97
2019-03-31T00:35:53.566Z,93.14
2019-03-31T00:37:14.521Z,93.24
2019-03-31T00:38:21.325Z,93.45
2019-03-31T00:38:53.538Z,93.97
2019-03-31T00:39:53.519Z,93.14
2019-03-31T00:40:53.516Z,93.24
2019-03-31T00:41:53.478Z,94.43
2019-03-31T00:42:53.525Z,93.66
2019-03-31T00:43:53.498Z,94.48
2019-03-31T00:44:56.323Z,94.01
2019-03-31T00:45:55.442Z,94.18
2019-03-31T00:47:15.401Z,93.60
2019-03-31T00:47:54.391Z,94.12
2019-03-31T00:48:56.336Z,93.29
2019-03-31T00:49:53.394Z,93.08
2019-03-31T00:51:00.329Z,94.01
2019-03-31T00:51:53.393Z,94.22
2019-03-31T00:52:53.386Z,95.25
2019-03-31T00:53:53.390Z,94.53
2019-03-31T00:54:55.821Z,94.43
2019-03-31T00:55:53.822Z,94.22
2019-03-31T00:56:59.859Z,94.73
2019-03-31T00:57:54.846Z,94.22
2019-03-31T00:58:53.271Z,94.32
2019-03-31T00:59:53.260Z,94.12
2019-03-31T01:00:53.252Z,94.12
2019-03-31T01:01:53.303Z,94.12
2019-03-31T01:02:55.826Z,94.43
2019-03-31T01:03:53.840Z,94.73
2019-03-31T01:04:53.206Z,94.73
2019-03-31T01:05:53.821Z,94.43
2019-03-31T01:06:53.818Z,94.22
2019-03-31T01:08:03.904Z,95.29
2019-03-31T01:09:01.744Z,94.68
2019-03-31T01:10:03.473Z,93.95
2019-03-31T01:10:59.962Z,95.09
2019-03-31T01:11:53.963Z,94.78
2019-03-31T01:13:01.693Z,94.78
2019-03-31T01:13:56.047Z,94.78
2019-03-31T01:14:53.192Z,95.19
2019-03-31T01:15:53.122Z,94.89
2019-03-31T01:16:54.015Z,95.09
2019-03-31T01:17:54.045Z,94.98
2019-03-31T01:18:53.061Z,95.29
2019-03-31T01:19:53.035Z,95.09
2019-03-31T01:20:53.064Z,95.19
2019-03-31T01:21:56.135Z,95.71
2019-03-31T01:23:07.501Z,96.54
2019-03-31T01:23:52.989Z,96.12
2019-03-31T01:24:53.004Z,95.40
2019-03-31T01:25:52.988Z,95.40
2019-03-31T01:26:52.952Z,95.61
2019-03-31T01:27:53.073Z,95.29
2019-03-31T01:29:07.502Z,95.19
2019-03-31T01:29:54.554Z,95.86
2019-03-31T01:30:55.500Z,95.61
2019-03-31T01:31:52.915Z,95.50
2019-03-31T01:32:52.891Z,95.75
2019-03-31T01:33:52.951Z,95.54
2019-03-31T01:34:52.866Z,95.24
2019-03-31T01:35:53.025Z,95.75
2019-03-31T01:36:55.502Z,96.17
2019-03-31T01:37:53.572Z,96.48
2019-03-31T01:38:53.498Z,96.17
2019-03-31T01:39:52.844Z,96.42
2019-03-31T01:40:52.830Z,97.35
2019-03-31T01:42:13.791Z,97.20
2019-03-31T01:42:52.820Z,97.35
2019-03-31T01:43:52.767Z,96.83
2019-03-31T01:44:52.753Z,96.79
2019-03-31T01:45:55.497Z,96.94
2019-03-31T01:46:53.026Z,96.89
2019-03-31T01:47:52.727Z,97.35
2019-03-31T01:48:52.708Z,96.94
2019-03-31T01:49:53.551Z,96.94
2019-03-31T01:50:53.503Z,96.94
2019-03-31T01:52:00.622Z,96.73
2019-03-31T01:52:55.516Z,97.25
2019-03-31T01:53:52.653Z,97.77
2019-03-31T01:54:53.553Z,98.08
2019-03-31T01:55:52.667Z,97.66
2019-03-31T01:56:54.532Z,98.08
2019-03-31T01:57:52.681Z,98.91
2019-03-31T01:58:53.513Z,98.49
2019-03-31T01:59:52.589Z,98.03
2019-03-31T02:00:52.575Z,97.97
2019-03-31T02:02:03.632Z,98.03
2019-03-31T02:02:53.551Z,97.66
2019-03-31T02:03:53.494Z,97.66
2019-03-31T02:04:52.527Z,97.66
2019-03-31T02:05:52.524Z,98.08
2019-03-31T02:06:52.502Z,96.83
2019-03-31T02:07:52.508Z,97.04
2019-03-31T02:08:52.480Z,96.62
2019-03-31T02:09:52.474Z,97.14
2019-03-31T02:10:52.461Z,97.66
2019-03-31T02:11:54.035Z,98.49
2019-03-31T02:12:52.992Z,98.70
2019-03-31T02:13:54.995Z,98.75
2019-03-31T02:14:52.412Z,98.44
2019-03-31T02:15:52.997Z,98.34
2019-03-31T02:16:53.000Z,97.77
2019-03-31T02:17:53.027Z,97.56
2019-03-31T02:18:52.367Z,97.56
2019-03-31T02:19:52.995Z,97.56
2019-03-31T02:20:53.035Z,97.35
2019-03-31T02:22:06.994Z,97.45
2019-03-31T02:22:52.341Z,97.97
2019-03-31T02:23:52.339Z,97.81
2019-03-31T02:24:52.300Z,97.97
2019-03-31T02:25:52.297Z,97.81
2019-03-31T02:26:52.282Z,97.91
2019-03-31T02:27:54.995Z,97.50
2019-03-31T02:28:52.512Z,97.71
2019-03-31T02:29:52.243Z,99.05
2019-03-31T02:30:52.234Z,98.95
2019-03-31T02:31:53.001Z,99.05
2019-03-31T02:32:55.078Z,98.74
2019-03-31T02:33:54.030Z,99.26
2019-03-31T02:34:53.019Z,98.95
2019-03-31T02:35:52.206Z,99.16
2019-03-31T02:36:52.985Z,98.43
2019-03-31T02:37:52.985Z,97.81
2019-03-31T02:38:58.985Z,97.65
2019-03-31T02:39:52.522Z,97.96
2019-03-31T02:40:52.130Z,97.65
2019-03-31T02:41:52.138Z,98.07
2019-03-31T02:42:52.100Z,97.96
2019-03-31T02:43:54.071Z,98.07
2019-03-31T02:44:52.080Z,98.17
2019-03-31T02:45:52.099Z,98.58
2019-03-31T02:46:52.993Z,99.41
2019-03-31T02:47:52.997Z,99.72
2019-03-31T02:48:52.985Z,99.10
2019-03-31T02:49:52.040Z,99.00
2019-03-31T02:50:55.053Z,98.79
2019-03-31T02:51:52.017Z,99.10
2019-03-31T02:52:52.488Z,99.52
2019-03-31T02:53:51.996Z,99.99
2019-03-31T02:54:51.963Z,99.82
2019-03-31T02:55:52.483Z,99.82
2019-03-31T02:56:55.012Z,99.82
2019-03-31T02:57:51.943Z,99.72
2019-03-31T02:58:51.924Z,99.99
2019-03-31T02:59:51.907Z,99.82
2019-03-31T03:00:51.914Z,99.99
2019-03-31T03:01:52.527Z,99.99
2019-03-31T03:02:52.531Z,99.99
2019-03-31T03:03:51.869Z,99.99
2019-03-31T03:04:51.855Z,99.78
2019-03-31T03:05:51.847Z,99.31
2019-03-31T03:06:52.483Z,99.10
2019-03-31T03:07:52.484Z,99.00
2019-03-31T03:08:51.841Z,98.90
2019-03-31T03:09:51.795Z,99.52
2019-03-31T03:10:51.789Z,99.41
2019-03-31T03:11:51.776Z,99.62
2019-03-31T03:12:52.492Z,99.52
2019-03-31T03:13:52.504Z,99.62
2019-03-31T03:14:52.530Z,99.82
2019-03-31T03:15:51.728Z,99.21
2019-03-31T03:16:54.486Z,99.21
2019-03-31T03:17:51.710Z,99.31
2019-03-31T03:18:55.598Z,99.31
2019-03-31T03:19:52.528Z,99.00
2019-03-31T03:20:51.848Z,98.90
2019-03-31T03:21:51.680Z,99.21
2019-03-31T03:23:06.544Z,99.00
2019-03-31T03:23:52.485Z,99.10
2019-03-31T03:24:54.482Z,99.62
2019-03-31T03:25:56.510Z,99.82
2019-03-31T03:26:52.638Z,99.00
2019-03-31T03:27:51.627Z,99.10
2019-03-31T03:28:52.485Z,99.10
2019-03-31T03:29:51.597Z,98.83
2019-03-31T03:30:51.630Z,99.52
2019-03-31T03:31:51.563Z,99.82
2019-03-31T03:33:13.759Z,99.72
2019-03-31T03:33:54.499Z,99.72
2019-03-31T03:34:51.515Z,99.72
2019-03-31T03:35:52.482Z,99.99
2019-03-31T03:36:52.477Z,99.99
2019-03-31T03:37:51.483Z,99.78
2019-03-31T03:38:51.502Z,99.99
2019-03-31T03:39:51.467Z,99.68
2019-03-31T03:40:51.981Z,99.47
2019-03-31T03:41:51.980Z,99.41
2019-03-31T03:42:51.445Z,99.52
2019-03-31T03:43:55.601Z,99.99
2019-03-31T03:44:51.411Z,99.10
2019-03-31T03:45:51.394Z,99.82
2019-03-31T03:46:51.388Z,99.99
2019-03-31T03:47:51.528Z,99.78
2019-03-31T03:48:51.390Z,99.88
2019-03-31T03:49:51.346Z,99.78
2019-03-31T03:50:51.373Z,99.88
2019-03-31T03:51:51.324Z,99.82
2019-03-31T03:52:51.330Z,99.31
2019-03-31T03:53:53.981Z,99.00
2019-03-31T03:54:51.998Z,98.58
2019-03-31T03:55:51.279Z,98.73
2019-03-31T03:56:51.268Z,98.52
2019-03-31T03:57:51.265Z,98.94
2019-03-31T03:58:52.091Z,99.25
2019-03-31T03:59:51.278Z,99.99
2019-03-31T04:00:57.978Z,99.99
2019-03-31T04:01:51.209Z,99.99
2019-03-31T04:02:51.200Z,99.99
2019-03-31T04:03:51.228Z,99.99
2019-03-31T04:04:51.983Z,99.99
2019-03-31T04:05:53.037Z,99.99
2019-03-31T04:06:51.157Z,99.99
2019-03-31T04:07:51.163Z,99.99
2019-03-31T04:08:51.134Z,99.99
2019-03-31T04:09:51.504Z,99.99
2019-03-31T04:10:51.512Z,99.99
2019-03-31T04:11:51.105Z,99.99
2019-03-31T04:12:51.088Z,99.99
2019-03-31T04:13:51.082Z,99.99
2019-03-31T04:14:51.076Z,99.99
2019-03-31T04:15:51.098Z,99.38
2019-03-31T04:16:51.046Z,99.38
2019-03-31T04:17:51.052Z,99.99
2019-03-31T04:18:53.977Z,99.58
2019-03-31T04:19:51.012Z,99.07
2019-03-31T04:20:51.042Z,98.96
2019-03-31T04:21:51.518Z,98.96
2019-03-31T04:22:50.980Z,98.86
2019-03-31T04:23:53.470Z,99.07
2019-03-31T04:24:53.507Z,99.07
2019-03-31T04:25:50.968Z,99.38
2019-03-31T04:26:50.933Z,98.61
2019-03-31T04:27:50.939Z,97.78
2019-03-31T04:28:50.909Z,97.99
2019-03-31T04:29:50.903Z,97.67
2019-03-31T04:30:50.910Z,97.99
2019-03-31T04:31:50.898Z,97.16
2019-03-31T04:32:50.899Z,96.95
2019-03-31T04:33:52.798Z,96.85
2019-03-31T04:34:50.852Z,97.16
2019-03-31T04:35:57.527Z,97.41
2019-03-31T04:36:53.499Z,97.88
2019-03-31T04:37:51.491Z,97.99
2019-03-31T04:38:51.472Z,97.62
2019-03-31T04:39:50.810Z,98.03
2019-03-31T04:40:51.480Z,97.67
2019-03-31T04:41:50.765Z,98.09
2019-03-31T04:42:50.752Z,97.93
2019-03-31T04:43:50.741Z,97.62
2019-03-31T04:44:50.895Z,97.41
2019-03-31T04:45:50.740Z,97.41
2019-03-31T04:46:50.707Z,97.67
2019-03-31T04:47:50.733Z,97.20
2019-03-31T04:48:53.470Z,97.31
2019-03-31T04:49:50.681Z,97.52
2019-03-31T04:50:53.991Z,97.41
2019-03-31T04:51:50.675Z,97.47
2019-03-31T04:52:50.639Z,97.41
2019-03-31T04:53:53.519Z,97.41
2019-03-31T04:54:53.989Z,97.41
2019-03-31T04:55:50.626Z,97.41
2019-03-31T04:56:50.593Z,97.57
2019-03-31T04:57:50.581Z,96.85
2019-03-31T04:58:50.573Z,97.16
2019-03-31T04:59:53.463Z,96.95
2019-03-31T05:00:52.490Z,97.62
2019-03-31T05:01:51.465Z,97.36
2019-03-31T05:02:50.529Z,97.36
2019-03-31T05:04:03.988Z,96.95
2019-03-31T05:04:50.505Z,97.16
2019-03-31T05:05:50.533Z,97.16
2019-03-31T05:06:50.483Z,97.16
2019-03-31T05:07:50.486Z,97.16
2019-03-31T05:08:50.463Z,96.64
2019-03-31T05:09:50.484Z,97.16
2019-03-31T05:10:50.447Z,96.85
2019-03-31T05:11:50.447Z,97.16
2019-03-31T05:12:50.426Z,96.95
2019-03-31T05:13:50.433Z,97.06
2019-03-31T05:14:50.415Z,96.91
2019-03-31T05:15:50.383Z,96.95
2019-03-31T05:16:50.389Z,96.80
2019-03-31T05:17:50.448Z,96.29
2019-03-31T05:18:50.928Z,97.01
2019-03-31T05:19:50.960Z,96.29
2019-03-31T05:20:52.959Z,96.39
2019-03-31T05:21:50.994Z,96.49
2019-03-31T05:22:52.814Z,96.70
2019-03-31T05:23:52.974Z,96.80
2019-03-31T05:24:50.318Z,96.49
2019-03-31T05:25:50.269Z,96.80
2019-03-31T05:26:50.957Z,96.29
2019-03-31T05:27:52.957Z,96.55
2019-03-31T05:28:50.243Z,96.08
2019-03-31T05:29:50.249Z,96.49
2019-03-31T05:30:50.223Z,96.14
2019-03-31T05:31:50.214Z,96.45
2019-03-31T05:32:50.991Z,96.03
2019-03-31T05:33:50.957Z,96.34
2019-03-31T05:34:52.957Z,95.42
2019-03-31T05:35:50.967Z,95.52
2019-03-31T05:36:50.188Z,95.42
2019-03-31T05:37:51.423Z,95.42
2019-03-31T05:38:52.959Z,95.73
2019-03-31T05:39:52.959Z,95.37
2019-03-31T05:40:52.985Z,95.21
2019-03-31T05:41:50.090Z,95.57
2019-03-31T05:42:50.109Z,95.52
2019-03-31T05:44:04.819Z,94.90
2019-03-31T05:44:51.965Z,94.85
2019-03-31T05:45:52.490Z,94.75
2019-03-31T05:46:50.037Z,93.82
2019-03-31T05:47:50.026Z,94.23
2019-03-31T05:48:50.029Z,94.13
2019-03-31T05:49:51.988Z,94.44
2019-03-31T05:50:49.987Z,94.44
2019-03-31T05:51:49.983Z,94.13
2019-03-31T05:52:52.965Z,94.29
2019-03-31T05:53:50.458Z,94.13
2019-03-31T05:54:49.974Z,93.78
2019-03-31T05:55:50.454Z,92.85
2019-03-31T05:56:49.922Z,93.16
2019-03-31T05:57:49.912Z,93.43
2019-03-31T05:58:49.934Z,93.47
2019-03-31T05:59:49.929Z,93.37
2019-03-31T06:00:50.454Z,93.22
2019-03-31T06:01:50.462Z,92.50
2019-03-31T06:02:49.866Z,92.40
2019-03-31T06:03:49.851Z,92.60
2019-03-31T06:04:52.467Z,92.19
2019-03-31T06:05:51.495Z,92.60
2019-03-31T06:06:49.811Z,91.83
2019-03-31T06:07:52.521Z,92.14
2019-03-31T06:08:49.786Z,91.94
2019-03-31T06:09:52.449Z,92.04
2019-03-31T06:10:49.764Z,92.04
2019-03-31T06:11:53.266Z,91.89
2019-03-31T06:12:50.461Z,91.83
2019-03-31T06:13:49.745Z,91.69
2019-03-31T06:14:49.733Z,90.97
2019-03-31T06:15:49.730Z,90.92
2019-03-31T06:16:49.729Z,90.82
2019-03-31T06:17:49.706Z,89.89
2019-03-31T06:18:51.412Z,90.41
2019-03-31T06:19:49.668Z,89.69
2019-03-31T06:20:49.653Z,88.92
2019-03-31T06:21:50.471Z,89.03
2019-03-31T06:22:49.722Z,89.03
2019-03-31T06:23:49.639Z,88.41
2019-03-31T06:24:49.622Z,88.72
2019-03-31T06:25:49.600Z,88.47
2019-03-31T06:26:49.592Z,88.17
2019-03-31T06:27:49.688Z,88.17
2019-03-31T06:28:49.608Z,88.17
2019-03-31T06:29:49.593Z,87.96
2019-03-31T06:30:49.574Z,87.85
2019-03-31T06:31:49.531Z,87.54
2019-03-31T06:32:49.543Z,87.34
2019-03-31T06:33:49.571Z,87.51
2019-03-31T06:34:49.565Z,87.65
2019-03-31T06:35:49.576Z,87.51
2019-03-31T06:36:49.480Z,87.40
2019-03-31T06:37:49.465Z,87.19
2019-03-31T06:38:49.467Z,87.40
2019-03-31T06:39:49.454Z,86.33
2019-03-31T06:40:49.433Z,86.13
2019-03-31T06:41:49.446Z,86.02
2019-03-31T06:42:49.416Z,85.71
2019-03-31T06:43:49.432Z,85.82
2019-03-31T06:44:49.411Z,85.51
2019-03-31T06:45:49.378Z,85.82
2019-03-31T06:46:49.357Z,85.51
2019-03-31T06:47:49.394Z,85.26
2019-03-31T06:48:49.403Z,84.85
2019-03-31T06:49:49.361Z,84.44
2019-03-31T06:50:49.345Z,83.83
2019-03-31T06:51:49.309Z,85.47
2019-03-31T06:52:49.303Z,83.95
2019-03-31T06:53:51.438Z,83.09
2019-03-31T06:54:52.721Z,82.78
2019-03-31T06:55:52.567Z,83.19
2019-03-31T06:56:49.275Z,82.86
2019-03-31T06:57:49.251Z,84.54
2019-03-31T06:58:49.224Z,84.85
2019-03-31T06:59:49.227Z,84.09
2019-03-31T07:00:49.217Z,83.64
2019-03-31T07:01:49.214Z,83.99
2019-03-31T07:02:49.189Z,84.61
2019-03-31T07:03:49.223Z,83.48
2019-03-31T07:05:00.461Z,84.40
2019-03-31T07:05:50.174Z,83.48
2019-03-31T07:06:49.241Z,83.23
2019-03-31T07:07:49.159Z,82.71
2019-03-31T07:08:49.163Z,83.09
2019-03-31T07:09:49.100Z,82.57
2019-03-31T07:10:49.123Z,82.33
2019-03-31T07:11:49.097Z,81.92
2019-03-31T07:12:49.124Z,81.30
2019-03-31T07:13:49.077Z,82.03
2019-03-31T07:14:49.095Z,81.48
2019-03-31T07:15:49.042Z,81.06
2019-03-31T07:16:49.023Z,80.72
2019-03-31T07:17:49.022Z,79.69
2019-03-31T07:18:49.063Z,78.91
2019-03-31T07:19:49.012Z,80.18
2019-03-31T07:20:48.975Z,80.49
2019-03-31T07:21:48.992Z,80.07
2019-03-31T07:22:48.958Z,80.79
2019-03-31T07:23:48.961Z,80.21
2019-03-31T07:24:48.976Z,81.34
2019-03-31T07:25:49.036Z,81.65
2019-03-31T07:26:48.912Z,81.86
2019-03-31T07:27:48.906Z,80.77
2019-03-31T07:28:48.896Z,80.69
2019-03-31T07:29:48.961Z,80.83
2019-03-31T07:30:48.881Z,81.45
2019-03-31T07:31:48.855Z,81.41
2019-03-31T07:32:48.850Z,80.14
2019-03-31T07:33:48.835Z,79.49
2019-03-31T07:34:48.851Z,79.28
2019-03-31T07:35:48.828Z,78.50
2019-03-31T07:36:48.807Z,78.87
2019-03-31T07:37:48.782Z,78.56
2019-03-31T07:38:48.875Z,76.99
2019-03-31T07:39:49.041Z,77.09
2019-03-31T07:40:48.960Z,77.71
2019-03-31T07:41:49.037Z,76.51
2019-03-31T07:42:56.608Z,77.33
2019-03-31T07:43:48.799Z,77.44
2019-03-31T07:44:49.539Z,77.20
2019-03-31T07:45:48.905Z,76.14
2019-03-31T07:46:48.685Z,75.01
2019-03-31T07:47:48.843Z,76.44
2019-03-31T07:48:48.732Z,76.41
2019-03-31T07:49:48.696Z,76.37
2019-03-31T07:50:48.725Z,76.78
2019-03-31T07:51:48.701Z,76.34
2019-03-31T07:52:48.659Z,75.93
2019-03-31T07:56:17.487Z,75.07
2019-03-31T07:57:16.579Z,75.73
2019-03-31T07:58:16.511Z,75.66
2019-03-31T07:59:16.202Z,77.44
2019-03-31T08:00:16.143Z,79.15
2019-03-31T08:01:25.191Z,78.94
2019-03-31T08:02:16.328Z,78.81
2019-03-31T08:03:25.995Z,80.56
2019-03-31T08:04:23.949Z,80.80
2019-03-31T08:05:16.139Z,81.69
2019-03-31T08:06:16.095Z,81.90
2019-03-31T08:07:16.230Z,80.87
2019-03-31T08:08:16.154Z,80.39
2019-03-31T08:09:16.103Z,81.73
2019-03-31T08:10:24.722Z,80.70
2019-03-31T08:12:29.973Z,80.12
2019-03-31T08:13:29.867Z,80.43
2019-03-31T08:14:29.885Z,81.05
2019-03-31T08:15:29.746Z,80.84
2019-03-31T08:16:29.769Z,80.33
2019-03-31T08:17:29.734Z,80.19
2019-03-31T08:18:29.729Z,79.67
2019-03-31T08:19:29.714Z,79.57
2019-03-31T08:20:29.712Z,79.05
2019-03-31T08:21:29.688Z,79.12
2019-03-31T08:22:29.665Z,78.81
2019-03-31T08:23:29.651Z,78.71
2019-03-31T08:24:29.649Z,78.57
2019-03-31T08:25:30.038Z,77.95
2019-03-31T08:26:29.634Z,77.92
2019-03-31T08:27:30.376Z,77.40
2019-03-31T08:28:29.607Z,76.86
2019-03-31T08:29:30.450Z,77.78
2019-03-31T08:30:29.597Z,77.65
2019-03-31T08:31:29.582Z,77.30
2019-03-31T08:32:29.566Z,76.62
2019-03-31T08:33:29.611Z,77.65
2019-03-31T08:34:29.540Z,77.34
2019-03-31T08:35:29.535Z,77.85
2019-03-31T08:36:29.590Z,77.40
2019-03-31T08:37:29.498Z,75.73
2019-03-31T08:38:29.491Z,74.77
2019-03-31T08:39:29.481Z,74.98
2019-03-31T08:40:29.454Z,75.08
2019-03-31T08:41:29.467Z,74.98
2019-03-31T08:42:29.439Z,74.94
2019-03-31T08:43:29.428Z,73.91
2019-03-31T08:44:29.478Z,72.27
2019-03-31T08:45:30.598Z,71.66
2019-03-31T08:46:29.406Z,71.48
2019-03-31T08:47:29.430Z,71.97
2019-03-31T08:48:29.444Z,73.85
2019-03-31T08:49:29.357Z,70.26
2019-03-31T08:50:29.341Z,70.97
2019-03-31T08:51:29.345Z,70.64
2019-03-31T08:52:29.322Z,68.99
2019-03-31T08:53:29.316Z,68.76
2019-03-31T08:54:29.333Z,67.14
2019-03-31T08:55:29.308Z,66.46
2019-03-31T08:56:29.278Z,66.43
2019-03-31T08:57:29.271Z,67.18
2019-03-31T08:58:29.293Z,66.47
2019-03-31T08:59:29.249Z,63.92
2019-03-31T09:00:29.270Z,62.99
2019-03-31T09:01:29.221Z,61.75
2019-03-31T09:02:29.213Z,60.95
2019-03-31T09:03:29.218Z,57.74
2019-03-31T09:04:29.187Z,56.65
2019-03-31T09:05:29.203Z,56.57
2019-03-31T09:06:29.193Z,57.98
2019-03-31T09:07:29.152Z,59.31
2019-03-31T09:08:29.139Z,61.75
2019-03-31T09:09:29.138Z,61.50
2019-03-31T09:10:29.124Z,64.22
2019-03-31T09:11:29.126Z,64.32
2019-03-31T09:12:29.116Z,65.34
2019-03-31T09:13:29.085Z,64.50
2019-03-31T09:14:29.088Z,64.12
2019-03-31T09:15:29.065Z,64.53
2019-03-31T09:16:29.052Z,65.34
2019-03-31T09:17:29.068Z,65.48
2019-03-31T09:18:29.076Z,65.48
2019-03-31T09:19:29.050Z,65.37
2019-03-31T09:20:29.016Z,65.55
2019-03-31T09:21:28.994Z,65.58
2019-03-31T09:22:29.008Z,66.60
2019-03-31T09:23:29.004Z,67.83
2019-03-31T09:24:29.015Z,67.86
2019-03-31T09:25:28.951Z,68.14
2019-03-31T09:26:28.941Z,69.40
2019-03-31T09:27:28.932Z,70.36
2019-03-31T09:28:28.943Z,70.97
2019-03-31T09:29:28.959Z,71.62
2019-03-31T09:30:29.244Z,71.55
2019-03-31T09:31:29.818Z,73.50
2019-03-31T09:32:29.399Z,74.53
2019-03-31T09:33:28.883Z,74.43
2019-03-31T09:34:30.198Z,74.22
2019-03-31T09:35:28.988Z,73.91
2019-03-31T09:36:31.111Z,74.15
2019-03-31T09:37:53.030Z,75.45
2019-03-31T09:38:35.284Z,75.29
2019-03-31T09:39:36.470Z,75.80
2019-03-31T09:40:32.373Z,75.18
2019-03-31T09:46:19.983Z,73.68
2019-03-31T09:47:18.796Z,73.98
2019-03-31T09:49:52.720Z,73.71
2019-03-31T09:50:56.469Z,72.58
2019-03-31T09:54:35.012Z,71.86
2019-03-31T09:55:23.555Z,72.31
2019-03-31T09:56:52.517Z,72.41
2019-03-31T09:57:27.463Z,72.58
2019-03-31T09:58:23.656Z,73.30
2019-03-31T10:00:27.105Z,71.72
2019-03-31T10:01:22.928Z,71.72
2019-03-31T10:02:22.040Z,71.08
2019-03-31T10:03:22.709Z,70.05
2019-03-31T10:04:26.682Z,70.64
2019-03-31T10:05:26.551Z,69.78
2019-03-31T10:06:30.632Z,69.13
2019-03-31T10:07:31.437Z,68.45
2019-03-31T10:08:30.662Z,67.08
2019-03-31T10:09:25.440Z,67.14
2019-03-31T10:10:27.020Z,67.52
2019-03-31T10:11:31.147Z,69.03
2019-03-31T10:12:27.120Z,66.57
2019-03-31T10:13:32.600Z,65.49
2019-03-31T10:14:27.266Z,66.51
2019-03-31T10:15:29.130Z,66.51
2019-03-31T10:16:24.975Z,65.25
2019-03-31T10:17:23.870Z,65.31
2019-03-31T10:18:25.250Z,66.10
2019-03-31T10:19:39.229Z,65.25
2019-03-31T10:20:26.803Z,64.13
2019-03-31T10:21:25.515Z,65.22
2019-03-31T10:22:25.980Z,64.37
2019-03-31T10:23:22.633Z,64.07
2019-03-31T10:24:27.251Z,64.99
2019-03-31T10:25:24.809Z,66.14
2019-03-31T10:26:31.816Z,64.92
2019-03-31T10:27:32.197Z,64.58
2019-03-31T10:28:29.478Z,63.76
2019-03-31T10:29:28.026Z,64.84
2019-03-31T10:30:39.596Z,65.08
2019-03-31T10:31:25.379Z,66.28
2019-03-31T10:34:26.119Z,66.38
2019-03-31T10:35:12.369Z,66.07
2019-03-31T10:36:05.154Z,65.15
2019-03-31T10:37:19.833Z,63.86
2019-03-31T10:38:05.533Z,63.66
2019-03-31T10:39:19.040Z,63.96
2019-03-31T10:40:21.136Z,64.20
2019-03-31T10:41:24.010Z,64.40
2019-03-31T10:42:06.735Z,64.55
2019-03-31T10:43:17.218Z,64.37
2019-03-31T10:44:19.099Z,65.03
2019-03-31T10:51:01.447Z,61.37
2019-03-31T11:05:15.718Z,60.08
2019-03-31T11:05:44.120Z,61.21
2019-03-31T11:06:38.762Z,60.11
2019-03-31T11:08:16.215Z,60.55
2019-03-31T11:12:40.207Z,61.77
2019-03-31T11:13:31.980Z,62.29
2019-03-31T11:14:50.345Z,62.83
2019-03-31T11:15:29.767Z,62.70
2019-03-31T11:16:27.775Z,60.35
2019-03-31T11:17:26.224Z,58.96
2019-03-31T11:18:25.908Z,58.73
2019-03-31T11:19:26.009Z,58.60
2019-03-31T11:20:25.729Z,57.65
2019-03-31T11:21:28.935Z,55.56
2019-03-31T11:22:26.449Z,53.16
2019-03-31T11:23:26.833Z,53.27
2019-03-31T11:24:25.693Z,52.30
2019-03-31T11:25:29.226Z,50.95
2019-03-31T11:26:25.690Z,52.03
2019-03-31T11:27:26.265Z,47.96
2019-03-31T11:28:25.707Z,49.66
2019-03-31T11:29:25.800Z,49.95
2019-03-31T11:30:27.458Z,47.91
2019-03-31T11:31:26.781Z,45.89
2019-03-31T11:32:26.198Z,47.35
2019-03-31T11:33:25.792Z,46.33
2019-03-31T11:34:26.292Z,46.58
2019-03-31T11:35:26.204Z,50.47
2019-03-31T11:36:26.159Z,50.47
2019-03-31T11:37:27.301Z,50.92
2019-03-31T11:38:25.652Z,52.09
2019-03-31T11:39:25.939Z,52.01
2019-03-31T11:40:35.210Z,52.93
2019-03-31T11:41:26.743Z,53.11
2019-03-31T11:42:28.141Z,51.68
2019-03-31T11:43:25.529Z,52.29
2019-03-31T11:44:27.637Z,52.09
2019-03-31T11:45:26.215Z,51.66
2019-03-31T11:46:26.064Z,51.84
2019-03-31T11:47:28.471Z,51.72
2019-03-31T11:48:26.246Z,50.62
2019-03-31T11:49:26.187Z,52.15
2019-03-31T11:50:26.079Z,50.62
2019-03-31T11:51:26.898Z,49.50
2019-03-31T11:52:26.129Z,51.56
2019-03-31T11:53:25.866Z,52.27
2019-03-31T11:54:26.311Z,51.35
2019-03-31T11:55:26.834Z,52.27
2019-03-31T11:56:25.403Z,50.74
2019-03-31T11:57:26.007Z,52.12
2019-03-31T11:58:25.690Z,53.34
2019-03-31T11:59:27.128Z,52.62
2019-03-31T12:00:25.940Z,52.09
2019-03-31T12:01:25.339Z,52.01
2019-03-31T12:02:27.429Z,52.29
2019-03-31T12:03:26.037Z,52.32
2019-03-31T12:04:25.570Z,52.83
2019-03-31T12:05:25.756Z,51.71
2019-03-31T12:06:25.244Z,52.86
2019-03-31T12:07:28.099Z,53.47
2019-03-31T12:08:28.680Z,52.14
2019-03-31T12:09:27.803Z,52.65
2019-03-31T12:10:28.287Z,52.01
2019-03-31T12:11:25.232Z,52.22
2019-03-31T12:12:25.421Z,51.10
2019-03-31T12:13:25.214Z,50.00
2019-03-31T12:14:25.127Z,51.63
2019-03-31T12:15:25.765Z,50.28
2019-03-31T12:16:30.521Z,51.12
2019-03-31T12:17:25.732Z,51.96
2019-03-31T12:18:28.169Z,52.06
2019-03-31T12:19:25.689Z,52.06
2019-03-31T12:20:32.763Z,51.45
2019-03-31T12:21:48.222Z,51.43
2019-03-31T12:22:27.723Z,51.84
2019-03-31T12:23:27.258Z,50.79
2019-03-31T12:24:54.676Z,49.77
2019-03-31T12:25:25.727Z,49.77
2019-03-31T12:26:27.941Z,50.15
2019-03-31T12:27:27.843Z,50.15
2019-03-31T12:28:26.673Z,49.42
2019-03-31T12:29:46.917Z,48.10
2019-03-31T12:30:29.700Z,48.46
2019-03-31T12:31:40.074Z,47.72
2019-03-31T12:32:28.785Z,48.82
2019-03-31T12:33:26.488Z,46.22
2019-03-31T12:34:25.949Z,48.68
2019-03-31T12:35:32.014Z,48.60
2019-03-31T12:36:26.535Z,48.19
2019-03-31T12:37:41.324Z,48.68
2019-03-31T12:38:29.726Z,48.18
2019-03-31T12:39:51.230Z,48.07
2019-03-31T12:40:29.372Z,47.50
2019-03-31T12:41:25.067Z,46.30
2019-03-31T12:42:27.697Z,46.41
2019-03-31T12:43:28.254Z,47.24
2019-03-31T12:44:25.848Z,47.45
2019-03-31T12:45:25.785Z,47.34
2019-03-31T12:46:30.228Z,46.51
2019-03-31T12:47:27.902Z,46.43
2019-03-31T12:48:25.714Z,45.59
2019-03-31T12:49:26.927Z,44.04
2019-03-31T12:50:27.229Z,44.46
2019-03-31T12:51:28.294Z,44.67
2019-03-31T12:52:45.869Z,45.98
2019-03-31T12:53:28.141Z,43.30
2019-03-31T12:54:48.227Z,43.37
2019-03-31T12:55:24.789Z,43.47
2019-03-31T12:56:26.813Z,44.57
2019-03-31T12:57:26.385Z,42.74
2019-03-31T12:58:28.644Z,42.80
2019-03-31T12:59:27.759Z,42.37
2019-03-31T13:00:28.712Z,40.64
2019-03-31T13:01:26.804Z,40.86
2019-03-31T13:02:25.691Z,41.47
2019-03-31T13:03:42.920Z,43.29
2019-03-31T13:04:28.179Z,41.31
2019-03-31T13:05:45.600Z,41.70
2019-03-31T13:06:35.718Z,40.91
2019-03-31T13:07:27.314Z,42.74
2019-03-31T13:08:29.719Z,42.96
2019-03-31T13:09:29.038Z,42.07
2019-03-31T13:10:48.347Z,42.41
2019-03-31T13:11:26.784Z,44.54
2019-03-31T13:12:25.095Z,44.75
2019-03-31T13:13:31.846Z,43.30
2019-03-31T13:14:28.872Z,42.69
2019-03-31T13:15:28.298Z,42.17
2019-03-31T13:16:24.459Z,43.20
2019-03-31T13:17:28.974Z,43.02
2019-03-31T13:18:27.825Z,42.53
2019-03-31T13:19:28.082Z,43.35
2019-03-31T13:20:33.943Z,44.71
2019-03-31T13:21:29.019Z,45.22
2019-03-31T13:22:25.979Z,44.59
2019-03-31T13:23:27.986Z,42.63
2019-03-31T13:24:28.220Z,43.14
2019-03-31T13:25:25.246Z,44.36
2019-03-31T13:26:24.336Z,43.24
2019-03-31T13:27:24.400Z,43.63
2019-03-31T13:28:24.282Z,42.71
2019-03-31T13:29:24.318Z,41.96
2019-03-31T13:30:24.337Z,42.07